Time;durP1;ratioP1;P1;durP2;ratioP2;P2;SDS_P1;SDS_P2;PMS_P1;PMS_P2;Temp;Humidity;BMP_temperature;BMP_pressure;BME280_temperature;BME280_humidity;BME280_pressure;Samples;Min_cycle;Max_cycle;Signal;HPM_P1;HPM_P2
2024/01/18 00:14:43;;;;;;;20.85;3.58;;;;;;;14.57;78.00;95043.63;6156310;23;20013;-25
2024/01/18 00:27:50;;;;;;;22.83;3.65;;;;;;;14.45;78.03;95012.78;6155865;23;20016;-25
2024/01/18 00:43:42;;;;;;;17.85;3.30;;;;;;;14.45;77.44;94995.69;6154770;23;20130;-25
2024/01/18 00:59:35;;;;;;;23.90;3.83;;;;;;;14.63;77.22;95047.13;6155450;23;20016;-25
2024/01/18 01:15:27;;;;;;;14.60;3.08;;;;;;;14.59;76.44;95068.41;6155735;23;20388;-25
2024/01/18 01:28:34;;;;;;;22.42;4.03;;;;;;;14.66;76.35;95062.53;6155193;23;20021;-25
2024/01/18 01:44:26;;;;;;;18.95;4.35;;;;;;;14.65;76.93;95037.22;6153993;23;20055;-25
2024/01/18 01:46:52;;;;;;;13.45;3.33;;;;;;;14.76;76.44;95038.53;6155765;23;20018;-25
2024/01/18 01:49:17;;;;;;;20.27;4.18;;;;;;;14.78;76.04;95030.59;6155718;23;20028;-25
2024/01/18 01:58:57;;;;;;;24.77;5.18;;;;;;;14.52;77.23;95030.69;6155555;23;20016;-25
2024/01/18 02:14:50;;;;;;;18.98;3.42;;;;;;;14.55;77.25;95033.19;6155015;23;20105;-25
2024/01/18 02:30:43;;;;;;;18.45;3.50;;;;;;;14.60;77.36;95020.81;6156493;23;20141;-25
2024/01/18 02:33:08;;;;;;;21.45;3.50;;;;;;;14.54;77.37;95015.31;6157312;23;20424;-24
2024/01/18 02:45:39;;;;;;;20.38;3.30;;;;;;;14.62;77.51;95001.97;6156145;23;20517;-25
2024/01/18 03:01:32;;;;;;;14.57;2.95;;;;;;;14.61;77.76;95005.94;6156964;23;20047;-25
2024/01/18 03:14:46;;;;;;;22.48;3.63;;;;;;;14.67;77.71;95021.13;6157039;23;20024;-25
2024/01/18 03:30:40;;;;;;;16.75;3.03;;;;;;;14.60;77.77;95023.53;6156583;23;20517;-25
2024/01/18 03:46:32;;;;;;;26.45;3.30;;;;;;;14.68;77.55;94998.06;6154865;23;20041;-25
2024/01/18 04:02:25;;;;;;;14.38;3.10;;;;;;;14.66;77.22;94997.03;6156377;23;20029;-25
2024/01/18 04:15:47;;;;;;;17.67;3.33;;;;;;;14.58;77.80;94993.28;6155995;23;20089;-25
2024/01/18 04:18:13;;;;;;;12.93;2.85;;;;;;;14.73;76.99;94996.56;6156586;23;20009;-25
2024/01/18 04:30:43;;;;;;;19.58;4.00;;;;;;;14.82;76.80;94985.47;6156173;23;20384;-25
2024/01/18 04:46:35;;;;;;;15.80;2.90;;;;;;;14.69;77.34;94975.00;6154367;23;20067;-25
2024/01/18 05:02:27;;;;;;;16.90;2.60;;;;;;;14.64;78.42;94985.88;6155799;23;20083;-25
2024/01/18 05:18:20;;;;;;;25.48;3.22;;;;;;;14.71;77.96;94990.88;6155358;23;20072;-25
2024/01/18 05:31:21;;;;;;;16.98;2.40;;;;;;;14.73;77.72;94994.59;6155812;23;20375;-25
2024/01/18 05:33:47;;;;;;;23.95;3.97;;;;;;;14.82;78.06;95006.56;6155426;23;20420;-25
2024/01/18 05:46:42;;;;;;;19.77;3.92;;;;;;;14.65;78.50;95007.22;6154328;23;20068;-25
2024/01/18 06:02:34;;;;;;;22.98;3.72;;;;;;;14.71;79.09;95016.16;6125913;23;20504;-25
2024/01/18 06:18:26;;;;;;;29.13;5.65;;;;;;;14.58;80.33;95024.03;6126134;23;20391;-25
2024/01/18 06:47:45;;;;;;;29.95;6.40;;;;;;;14.73;79.89;95024.63;6140020;23;20028;-25
2024/01/18 07:03:41;;;;;;;26.25;4.50;;;;;;;14.82;79.76;95042.03;6154812;23;20056;-25
2024/01/18 07:19:33;;;;;;;29.85;5.00;;;;;;;14.68;80.29;95049.91;6157047;23;20016;-25
2024/01/18 07:32:35;;;;;;;26.77;4.55;;;;;;;14.82;80.01;95059.16;6156526;23;20036;-25
2024/01/18 07:35:01;;;;;;;28.88;4.40;;;;;;;14.72;81.39;95055.13;6156525;23;20013;-25
2024/01/18 07:47:44;;;;;;;28.98;5.78;;;;;;;14.78;80.80;95052.44;6155539;23;20029;-25
2024/01/18 08:03:37;;;;;;;23.30;4.35;;;;;;;14.65;81.08;95042.69;6126606;23;20020;-25
2024/01/18 08:19:29;;;;;;;41.17;5.95;;;;;;;14.83;81.32;95054.47;6126861;23;20459;-25
2024/01/18 08:48:49;;;;;;;31.13;5.18;;;;;;;14.67;81.13;95062.03;6138596;23;20048;-25
2024/01/18 09:04:41;;;;;;;29.20;6.43;;;;;;;14.69;82.74;95067.78;6155668;23;20335;-25
2024/01/18 09:20:46;;;;;;;35.05;5.40;;;;;;;14.84;80.16;95077.75;6155871;23;20021;-25
2024/01/18 09:37:04;;;;;;;32.65;5.25;;;;;;;15.06;80.67;95110.69;6155506;23;20347;-25
2024/01/18 10:08:09;;;;;;;25.33;5.10;;;;;;;14.99;80.33;95122.03;6125742;23;20069;-25
2024/01/18 10:20:55;;;;;;;25.27;5.38;;;;;;;15.14;79.97;95103.53;6125975;23;20325;-25
2024/01/18 10:37:17;;;;;;;31.23;4.47;;;;;;;15.03;80.54;95101.47;6125605;23;20053;-25
2024/01/18 10:53:10;;;;;;;32.92;7.30;;;;;;;15.03;80.73;95090.56;6156244;23;20072;-25
2024/01/18 11:06:27;;;;;;;32.83;6.60;;;;;;;15.07;81.17;95093.81;6156834;23;20339;-25
2024/01/18 11:22:24;;;;;;;36.85;8.57;;;;;;;15.08;81.32;95100.03;6156944;23;20064;-25
2024/01/18 11:38:21;;;;;;;32.28;6.22;;;;;;;15.35;79.69;95080.28;6156275;23;20067;-25
2024/01/18 12:09:03;;;;;;;24.83;4.90;;;;;;;15.06;80.80;95061.53;6156271;23;20086;-25
2024/01/18 12:22:18;;;;;;;19.05;4.82;;;;;;;15.41;79.07;95047.53;6156595;23;20324;-25
2024/01/18 12:38:10;;;;;;;25.60;5.80;;;;;;;15.34;79.39;95046.00;6155801;23;20020;-25
2024/01/18 12:54:03;;;;;;;30.95;5.75;;;;;;;15.20;79.59;95044.25;6154716;23;20104;-25
2024/01/18 13:09:55;;;;;;;24.98;4.55;;;;;;;15.26;79.40;95049.72;6155756;23;20021;-25
2024/01/18 13:23:00;;;;;;;29.30;6.55;;;;;;;15.04;80.35;95059.28;6156035;23;20482;-27
2024/01/18 13:25:25;;;;;;;21.92;4.38;;;;;;;15.37;78.75;95053.22;6155653;23;20448;-27
2024/01/18 13:38:12;;;;;;;24.73;3.92;;;;;;;15.40;77.87;95065.16;6155601;23;20101;-27
2024/01/18 13:54:17;;;;;;;33.10;4.82;;;;;;;15.20;79.40;95065.34;6154155;23;20028;-28
2024/01/18 14:10:09;;;;;;;29.40;4.82;;;;;;;15.18;78.99;95082.22;6155235;23;20016;-28
2024/01/18 14:39:29;;;;;;;35.90;6.72;;;;;;;15.06;80.01;95099.75;6155188;23;20055;-28
2024/01/18 14:55:22;;;;;;;32.25;5.55;;;;;;;15.18;78.97;95095.88;6152424;23;20083;-27
2024/01/18 15:11:14;;;;;;;27.17;5.28;;;;;;;15.36;77.89;95111.84;6154801;23;20021;-27
2024/01/18 15:24:22;;;;;;;32.13;5.50;;;;;;;15.45;76.98;95130.03;6155162;23;20017;-27
2024/01/18 15:26:48;;;;;;;32.95;5.75;;;;;;;15.34;78.22;95135.41;6155109;23;20076;-27
2024/01/18 15:39:34;;;;;;;27.73;6.78;;;;;;;15.28;78.41;95135.41;6156439;23;20472;-28
2024/01/18 15:55:26;;;;;;;36.33;6.88;;;;;;;15.29;78.20;95153.28;6155334;23;20468;-28
2024/01/18 16:11:19;;;;;;;28.63;5.80;;;;;;;15.06;78.93;95154.38;6156692;23;20076;-28
2024/01/18 16:27:11;;;;;;;61.55;24.95;;;;;;;15.29;77.53;95188.03;6156098;23;20020;-28
2024/01/18 16:40:16;;;;;;;76.88;33.63;;;;;;;15.06;78.27;95203.53;6156397;23;20024;-27
2024/01/18 16:42:41;;;;;;;53.38;26.85;;;;;;;15.27;77.38;95191.25;6129917;23;20009;-27
2024/01/18 16:55:37;;;;;;;49.72;19.23;;;;;;;15.21;77.00;95215.03;6155142;23;20036;-27
2024/01/18 16:58:03;;;;;;;52.83;17.98;;;;;;;15.30;76.64;95211.38;6126785;23;20502;-27
2024/01/18 17:00:29;;;;;;;46.88;17.08;;;;;;;15.21;76.57;95215.03;6126544;23;20013;-28
2024/01/18 17:02:54;;;;;;;54.47;18.60;;;;;;;15.23;76.87;95209.84;6126727;23;20009;-27
2024/01/18 17:12:03;;;;;;;42.85;15.07;;;;;;;15.03;77.45;95212.69;6126682;23;20025;-27
2024/01/18 17:41:23;;;;;;;41.22;13.75;;;;;;;14.91;77.00;95236.41;6126155;23;20016;-27
2024/01/18 17:57:15;;;;;;;36.38;12.65;;;;;;;15.02;76.52;95268.50;6146638;23;20083;-27
2024/01/18 18:13:08;;;;;;;37.28;9.80;;;;;;;14.88;76.55;95285.75;6155573;23;20404;-27
2024/01/18 18:26:31;;;;;;;27.23;9.18;;;;;;;14.86;75.70;95288.22;6155518;23;20020;-27
2024/01/18 18:42:23;;;;;;;33.70;12.73;;;;;;;14.97;75.36;95294.53;6154803;23;20063;-27
2024/01/18 18:44:48;;;;;;;37.20;11.48;;;;;;;14.87;75.54;95300.63;6155577;23;20084;-27
2024/01/18 18:57:19;;;;;;;27.63;9.18;;;;;;;14.85;75.40;95314.00;6153821;23;20104;-27
2024/01/18 19:13:11;;;;;;;35.22;9.70;;;;;;;14.99;75.27;95313.16;6156495;23;20160;-27
2024/01/18 19:29:03;;;;;;;33.10;10.32;;;;;;;14.89;75.76;95306.34;6156605;23;20023;-28
2024/01/18 19:42:23;;;;;;;37.50;9.35;;;;;;;14.84;76.12;95318.72;6156697;23;20016;-27
2024/01/18 19:58:15;;;;;;;49.30;15.55;;;;;;;15.01;75.59;95338.00;6155482;23;20425;-27
2024/01/18 20:14:07;;;;;;;39.63;13.20;;;;;;;15.06;75.72;95345.50;6156246;23;20020;-27
2024/01/18 20:43:26;;;;;;;36.28;9.35;;;;;;;14.92;76.18;95365.47;6155786;23;20040;-27
2024/01/18 20:59:19;;;;;;;24.55;6.45;;;;;;;14.86;76.04;95368.13;6154712;23;20072;-27
2024/01/18 21:15:11;;;;;;;34.83;6.47;;;;;;;14.94;75.61;95374.69;6155895;23;20032;-27
2024/01/18 21:28:30;;;;;;;26.48;4.85;;;;;;;14.90;75.42;95387.03;6155511;23;20021;-27
2024/01/18 21:44:23;;;;;;;25.95;7.13;;;;;;;14.88;75.00;95405.84;6155187;23;20040;-27
2024/01/18 22:00:15;;;;;;;23.98;6.80;;;;;;;14.90;74.77;95406.13;6154018;23;20036;-27
2024/01/18 22:16:07;;;;;;;22.77;4.05;;;;;;;14.83;74.98;95420.22;6155339;23;20032;-27
2024/01/18 22:29:12;;;;;;;23.10;4.90;;;;;;;14.72;74.78;95435.19;6155484;23;20012;-27
2024/01/18 22:45:05;;;;;;;31.40;6.25;;;;;;;14.92;74.14;95439.91;6155479;23;20016;-27
2024/01/18 23:00:58;;;;;;;21.45;4.22;;;;;;;14.89;73.80;95443.59;6155721;23;20076;-27
2024/01/18 23:16:51;;;;;;;21.40;3.88;;;;;;;15.05;73.04;95410.28;6156683;23;20016;-27
2024/01/18 23:19:16;;;;;;;22.15;5.07;;;;;;;14.93;73.32;95414.13;6157221;23;20002;-27
2024/01/18 23:32:07;;;;;;;23.02;4.30;;;;;;;15.07;72.99;95401.63;6066787;23;20476;-27
2024/01/18 23:48:18;;;;;;;24.63;4.80;;;;;;;14.64;74.37;95409.56;5981620;23;20064;-27
